Time;durP1;ratioP1;P1;durP2;ratioP2;P2;SDS_P1;SDS_P2;PMS_P1;PMS_P2;Temp;Humidity;BMP_temperature;BMP_pressure;BME280_temperature;BME280_humidity;BME280_pressure;Samples;Min_cycle;Max_cycle;Signal;HPM_P1;HPM_P2
2021/05/06 00:02:20;;;;;;;3.30;2.90;;;28.20;37.50;;;;;;5073041;28;20458;-33
2021/05/06 00:08:02;;;;;;;3.80;2.90;;;28.10;39.70;;;;;;5077305;28;20499;-33
2021/05/06 00:32:49;;;;;;;6.90;3.10;;;28.00;37.60;;;;;;5079891;28;20470;-40
2021/05/06 00:35:19;;;;;;;5.70;3.13;;;27.90;38.00;;;;;;5119261;27;20456;-40
2021/05/06 00:37:57;;;;;;;5.70;2.80;;;27.70;38.80;;;;;;5145556;27;20822;-40
2021/05/06 00:40:36;;;;;;;3.10;2.80;;;27.60;38.50;;;;;;5146641;27;20454;-39
2021/05/06 00:54:28;;;;;;;4.27;3.00;;;27.20;38.60;;;;;;5136253;27;20441;-40
2021/05/06 00:57:04;;;;;;;3.20;2.90;;;27.10;39.60;;;;;;5145324;27;20821;-40
2021/05/06 00:59:56;;;;;;;4.23;3.27;;;27.00;41.80;;;;;;5140230;27;20449;-39
2021/05/06 01:05:15;;;;;;;3.80;3.03;;;26.90;39.00;;;;;;5140440;27;20500;-40
2021/05/06 01:07:59;;;;;;;4.90;3.30;;;26.80;38.90;;;;;;5144540;27;20444;-41
2021/05/06 01:10:42;;;;;;;6.07;3.13;;;26.70;38.00;;;;;;5146207;27;20489;-39
2021/05/06 01:13:15;;;;;;;4.40;2.93;;;26.70;39.80;;;;;;5145217;27;20438;-42
2021/05/06 01:15:45;;;;;;;10.07;3.70;;;26.60;39.90;;;;;;5146563;27;20429;-40
2021/05/06 01:18:15;;;;;;;5.80;3.20;;;26.60;38.80;;;;;;5139181;27;20445;-39
2021/05/06 01:20:50;;;;;;;4.17;3.63;;;26.50;39.30;;;;;;5139228;27;20483;-41
2021/05/06 01:23:20;;;;;;;3.97;3.17;;;26.50;39.90;;;;;;5145363;27;20453;-40
2021/05/06 01:25:53;;;;;;;5.07;3.67;;;26.50;40.10;;;;;;5144237;27;20485;-40
2021/05/06 01:28:26;;;;;;;4.63;3.20;;;26.50;40.00;;;;;;5137775;27;20500;-39
2021/05/06 01:31:01;;;;;;;3.80;3.13;;;26.40;39.50;;;;;;5145885;27;20855;-39
2021/05/06 01:33:37;;;;;;;5.07;3.30;;;26.30;40.50;;;;;;5144742;27;20501;-38
2021/05/06 01:36:11;;;;;;;4.63;3.17;;;26.30;41.20;;;;;;5145215;27;20445;-40
2021/05/06 01:39:06;;;;;;;4.30;2.93;;;26.20;40.90;;;;;;5145629;27;20523;-39
2021/05/06 01:41:47;;;;;;;3.80;3.30;;;26.10;40.40;;;;;;5144205;27;20448;-42
2021/05/06 01:44:31;;;;;;;3.57;3.27;;;26.00;39.90;;;;;;5144807;27;20502;-40
2021/05/06 01:47:15;;;;;;;4.00;3.63;;;26.00;39.90;;;;;;5143679;27;20805;-39
2021/05/06 02:01:12;;;;;;;4.30;3.90;;;25.70;39.80;;;;;;5142398;27;20441;-40
2021/05/06 02:03:42;;;;;;;4.30;3.60;;;25.60;40.30;;;;;;5144635;27;21597;-40
2021/05/06 02:06:12;;;;;;;3.27;2.97;;;25.60;39.70;;;;;;5144668;27;20501;-41
2021/05/06 02:08:43;;;;;;;3.53;3.23;;;25.60;40.20;;;;;;5144590;27;20444;-41
2021/05/06 02:11:13;;;;;;;4.80;3.90;;;25.50;39.60;;;;;;5144908;27;20445;-40
2021/05/06 02:13:43;;;;;;;3.97;3.50;;;25.50;39.30;;;;;;5144339;27;20449;-39
2021/05/06 02:16:18;;;;;;;3.57;3.03;;;25.40;40.50;;;;;;5145008;27;20445;-41
2021/05/06 02:18:48;;;;;;;3.73;3.33;;;25.30;39.40;;;;;;5144388;27;20496;-39
2021/05/06 02:21:19;;;;;;;9.53;4.17;;;25.30;40.10;;;;;;5144281;27;20456;-41
2021/05/06 02:23:50;;;;;;;6.27;3.80;;;25.20;40.30;;;;;;5142723;27;20498;-40
2021/05/06 02:26:20;;;;;;;4.57;3.60;;;25.20;39.30;;;;;;5144922;27;20540;-41
2021/05/06 02:28:50;;;;;;;5.13;4.00;;;25.20;39.70;;;;;;5145108;27;20441;-40
2021/05/06 02:31:21;;;;;;;5.40;3.40;;;25.10;39.90;;;;;;5144204;27;20449;-40
2021/05/06 02:33:51;;;;;;;4.10;3.50;;;25.00;39.50;;;;;;5144461;27;20452;-40
2021/05/06 02:36:21;;;;;;;3.80;3.17;;;25.00;39.30;;;;;;5144072;27;20456;-40
2021/05/06 02:38:52;;;;;;;3.57;3.30;;;24.90;39.80;;;;;;5144236;27;20477;-39
2021/05/06 02:41:23;;;;;;;3.80;3.40;;;24.80;40.70;;;;;;5144169;27;20441;-39
2021/05/06 02:43:53;;;;;;;6.43;3.50;;;24.80;40.70;;;;;;5143077;27;20530;-41
2021/05/06 02:46:26;;;;;;;5.03;3.70;;;24.60;40.30;;;;;;5144104;27;20449;-41
2021/05/06 02:48:56;;;;;;;3.77;3.47;;;24.50;41.40;;;;;;5143850;27;20531;-40
2021/05/06 02:51:30;;;;;;;6.80;3.70;;;24.40;40.90;;;;;;5143987;27;20459;-39
2021/05/06 02:54:01;;;;;;;4.57;3.27;;;24.30;40.40;;;;;;5143311;27;20436;-40
2021/05/06 02:56:36;;;;;;;4.90;3.53;;;24.20;41.50;;;;;;5143514;27;20550;-40
2021/05/06 02:59:29;;;;;;;5.67;3.37;;;24.20;41.60;;;;;;5143967;27;21276;-39
2021/05/06 03:04:47;;;;;;;4.50;3.40;;;23.90;41.20;;;;;;5143992;28;20491;-38
2021/05/06 03:07:21;;;;;;;5.93;3.87;;;23.80;41.70;;;;;;5143895;28;20445;-41
2021/05/06 03:10:00;;;;;;;4.80;3.80;;;23.70;41.80;;;;;;5143664;28;20483;-42
2021/05/06 03:12:57;;;;;;;6.17;3.83;;;23.60;41.50;;;;;;5145571;27;20505;-42
2021/05/06 03:21:24;;;;;;;6.00;3.70;;;23.40;42.30;;;;;;5122769;27;20883;-40
2021/05/06 03:23:55;;;;;;;5.97;4.13;;;23.30;42.60;;;;;;5137640;27;20912;-39
2021/05/06 03:26:27;;;;;;;6.43;3.83;;;23.20;42.10;;;;;;5148077;27;20513;-40
2021/05/06 03:28:59;;;;;;;4.30;3.70;;;23.30;41.80;;;;;;5149536;27;20471;-37
2021/05/06 03:43:06;;;;;;;6.40;4.57;;;22.80;44.10;;;;;;5145933;27;20543;-40
2021/05/06 03:46:30;;;;;;;6.03;4.40;;;22.60;44.60;;;;;;5142444;27;20546;-40
2021/05/06 04:03:28;;;;;;;4.37;3.97;;;21.40;54.20;;;;;;5140032;27;20489;-40
2021/05/06 04:14:42;;;;;;;5.13;4.60;;;20.90;54.80;;;;;;5126928;28;20480;-41
2021/05/06 04:17:23;;;;;;;5.40;4.90;;;20.70;56.30;;;;;;5140943;27;20449;-40
2021/05/06 04:25:42;;;;;;;4.87;4.37;;;20.40;55.40;;;;;;5146351;27;20928;-40
2021/05/06 04:31:22;;;;;;;8.33;5.00;;;20.20;59.80;;;;;;5145994;27;20454;-40
2021/05/06 04:36:53;;;;;;;7.13;5.27;;;20.00;59.00;;;;;;5142827;27;20415;-40
2021/05/06 04:54:34;;;;;;;5.97;5.47;;;19.70;58.10;;;;;;5143241;27;20440;-40
2021/05/06 04:57:25;;;;;;;8.63;5.27;;;19.60;60.70;;;;;;5132976;27;20451;-38
2021/05/06 05:03:40;;;;;;;5.80;5.30;;;19.40;60.00;;;;;;5145277;27;20466;-40
2021/05/06 05:06:14;;;;;;;7.87;5.20;;;19.30;61.00;;;;;;5125306;27;20518;-41
2021/05/06 05:08:50;;;;;;;6.30;5.37;;;19.20;60.90;;;;;;5131103;27;20430;-40
2021/05/06 05:20:10;;;;;;;7.00;5.27;;;19.10;60.80;;;;;;5146809;27;20455;-40
2021/05/06 05:26:00;;;;;;;5.73;4.90;;;19.00;62.30;;;;;;5144235;27;20501;-40
2021/05/06 05:28:32;;;;;;;7.97;6.03;;;18.90;63.20;;;;;;5145288;27;20744;-40
2021/05/06 05:31:15;;;;;;;5.90;4.87;;;18.80;62.30;;;;;;5142249;27;20470;-38
2021/05/06 05:33:58;;;;;;;5.90;5.30;;;18.80;62.70;;;;;;5146078;27;20424;-39
2021/05/06 05:36:28;;;;;;;5.80;4.77;;;18.70;62.30;;;;;;5146388;27;20470;-40
2021/05/06 05:39:09;;;;;;;8.63;5.47;;;18.70;63.60;;;;;;5144972;27;20415;-39
2021/05/06 05:55:36;;;;;;;6.60;5.37;;;18.50;67.00;;;;;;5144456;27;20541;-39
2021/05/06 05:58:06;;;;;;;6.10;5.50;;;18.30;67.00;;;;;;5142800;27;20452;-40
2021/05/06 06:00:37;;;;;;;5.63;5.13;;;18.40;68.50;;;;;;5143707;27;20423;-40
2021/05/06 06:03:07;;;;;;;6.73;5.03;;;18.30;67.50;;;;;;5144510;27;20427;-39
2021/05/06 06:05:38;;;;;;;5.77;5.00;;;18.30;65.20;;;;;;5145113;27;20508;-40
2021/05/06 06:08:09;;;;;;;6.80;5.20;;;18.20;68.40;;;;;;5144758;27;20441;-40
2021/05/06 06:10:40;;;;;;;6.90;4.53;;;18.20;65.20;;;;;;5131373;27;20484;-41
2021/05/06 06:13:10;;;;;;;7.93;6.07;;;18.10;69.40;;;;;;5143914;27;20445;-40
2021/05/06 06:15:52;;;;;;;5.27;4.87;;;18.00;71.60;;;;;;5144004;27;20495;-39
2021/05/06 06:18:26;;;;;;;5.90;5.10;;;17.90;71.60;;;;;;5142957;27;20449;-38
2021/05/06 06:21:02;;;;;;;5.17;4.67;;;17.90;70.40;;;;;;5144540;27;20458;-40
2021/05/06 06:23:50;;;;;;;5.80;4.90;;;17.80;73.50;;;;;;5145115;27;20473;-40
2021/05/06 06:26:22;;;;;;;6.27;5.67;;;17.80;74.30;;;;;;5141184;27;20444;-39
2021/05/06 06:28:54;;;;;;;7.83;4.73;;;17.70;75.50;;;;;;5144862;27;20441;-39
2021/05/06 06:31:27;;;;;;;6.87;4.80;;;17.60;74.70;;;;;;5143319;27;20488;-38
2021/05/06 06:34:04;;;;;;;5.37;4.80;;;17.60;75.60;;;;;;5144585;27;20482;-39
2021/05/06 06:36:34;;;;;;;7.33;5.53;;;17.50;72.90;;;;;;5143000;27;20492;-41
2021/05/06 06:39:05;;;;;;;8.73;4.97;;;17.50;72.60;;;;;;5144293;27;20444;-40
2021/05/06 06:41:36;;;;;;;6.57;5.40;;;17.50;73.10;;;;;;5143009;27;20516;-40
2021/05/06 06:44:07;;;;;;;7.00;6.00;;;17.60;71.90;;;;;;5144225;27;20446;-40
2021/05/06 06:46:40;;;;;;;6.80;5.40;;;17.60;72.80;;;;;;5142814;27;20423;-41
2021/05/06 06:49:11;;;;;;;7.07;5.40;;;17.60;73.30;;;;;;5144014;27;20524;-40
2021/05/06 06:51:45;;;;;;;8.33;5.20;;;17.50;74.40;;;;;;5144213;27;20584;-40
2021/05/06 06:54:22;;;;;;;8.50;5.70;;;17.50;76.40;;;;;;5144790;27;20496;-39
2021/05/06 06:56:57;;;;;;;7.33;5.30;;;17.40;76.20;;;;;;5142548;27;20514;-40
2021/05/06 06:59:28;;;;;;;4.80;4.30;;;17.40;77.10;;;;;;5141822;27;20431;-38
2021/05/06 07:01:58;;;;;;;5.87;5.07;;;17.40;80.40;;;;;;5143102;28;20444;-40
2021/05/06 07:04:30;;;;;;;7.90;5.37;;;17.30;82.00;;;;;;5143760;28;20519;-39
2021/05/06 07:07:24;;;;;;;5.53;4.90;;;17.20;80.00;;;;;;5143489;28;20509;-39
2021/05/06 07:09:57;;;;;;;6.20;5.50;;;17.30;78.70;;;;;;5143763;28;20532;-39
2021/05/06 07:12:28;;;;;;;6.20;5.47;;;17.20;82.50;;;;;;5142303;28;20441;-37
2021/05/06 07:14:58;;;;;;;6.43;5.80;;;17.20;84.60;;;;;;5143596;28;20444;-40
2021/05/06 07:17:28;;;;;;;8.10;5.80;;;17.10;81.60;;;;;;5143487;27;20492;-39
2021/05/06 07:19:59;;;;;;;6.30;5.40;;;17.00;81.10;;;;;;5144165;28;20452;-39
2021/05/06 07:22:29;;;;;;;6.30;5.80;;;17.10;80.50;;;;;;5143376;28;20460;-39
2021/05/06 07:25:00;;;;;;;6.27;5.43;;;17.20;82.80;;;;;;5143006;28;20937;-39
2021/05/06 07:27:33;;;;;;;7.43;5.40;;;17.20;83.90;;;;;;5142061;28;20445;-40
2021/05/06 07:30:10;;;;;;;5.60;5.03;;;17.20;84.40;;;;;;5143996;28;20603;-40
2021/05/06 07:32:42;;;;;;;6.93;5.83;;;17.40;86.50;;;;;;5125404;28;21017;-40
2021/05/06 07:35:14;;;;;;;7.50;6.07;;;17.30;87.00;;;;;;5143384;28;20491;-40
2021/05/06 07:37:45;;;;;;;10.00;6.30;;;17.40;88.70;;;;;;5143643;28;20453;-40
2021/05/06 07:40:18;;;;;;;8.17;6.60;;;17.40;88.30;;;;;;5143576;28;20532;-38
2021/05/06 07:42:51;;;;;;;10.13;6.30;;;17.50;88.20;;;;;;5142750;28;20973;-40
2021/05/06 07:45:24;;;;;;;7.10;6.23;;;17.60;89.50;;;;;;5143581;28;20580;-39
2021/05/06 07:47:56;;;;;;;6.67;6.00;;;17.60;90.30;;;;;;5143510;28;20459;-40
2021/05/06 07:50:30;;;;;;;9.23;7.40;;;17.60;91.60;;;;;;5143863;28;20480;-40
2021/05/06 07:53:05;;;;;;;9.23;6.73;;;17.60;92.40;;;;;;5143188;28;20798;-40
2021/05/06 07:55:39;;;;;;;9.07;7.07;;;17.60;93.30;;;;;;5136325;28;20441;-38
2021/05/06 07:58:11;;;;;;;7.73;7.00;;;17.60;95.00;;;;;;5144601;27;20451;-39
2021/05/06 08:00:42;;;;;;;8.60;7.60;;;17.60;95.60;;;;;;5146880;27;20444;-41
2021/05/06 08:03:12;;;;;;;8.83;7.73;;;17.60;97.30;;;;;;5146235;27;20456;-38
2021/05/06 08:05:42;;;;;;;8.23;7.43;;;17.60;97.90;;;;;;5146815;27;20449;-40
2021/05/06 08:08:12;;;;;;;10.00;7.47;;;17.60;99.10;;;;;;5146958;27;20444;-38
2021/05/06 08:10:42;;;;;;;9.73;7.20;;;17.70;99.30;;;;;;5146639;27;20487;-39
2021/05/06 08:13:13;;;;;;;10.27;7.47;;;17.70;99.90;;;;;;5146347;27;20466;-36
2021/05/06 08:15:43;;;;;;;9.17;8.27;;;17.70;99.90;;;;;;5145347;27;20513;-40
2021/05/06 08:18:14;;;;;;;8.47;7.67;;;17.70;99.90;;;;;;5145641;27;20484;-40
2021/05/06 08:20:44;;;;;;;10.10;7.80;;;17.80;99.90;;;;;;5146798;27;20467;-36
2021/05/06 08:23:14;;;;;;;10.93;7.97;;;17.70;99.90;;;;;;5145919;27;20494;-38
2021/05/06 08:25:44;;;;;;;7.93;7.20;;;17.70;99.90;;;;;;5146925;27;20452;-39
2021/05/06 08:28:15;;;;;;;10.03;8.43;;;17.70;99.90;;;;;;5145535;27;20514;-37
2021/05/06 08:30:45;;;;;;;8.47;7.43;;;17.70;99.90;;;;;;5146429;27;20509;-37
2021/05/06 08:33:15;;;;;;;8.87;8.07;;;17.70;99.90;;;;;;5145740;27;20505;-37
2021/05/06 08:35:45;;;;;;;9.33;8.33;;;17.60;99.90;;;;;;5147145;27;20423;-38
2021/05/06 08:38:15;;;;;;;8.90;7.30;;;17.60;99.90;;;;;;5145534;27;20509;-36
2021/05/06 08:40:46;;;;;;;9.20;7.03;;;17.60;99.90;;;;;;5144598;27;20423;-38
2021/05/06 08:43:19;;;;;;;9.33;7.40;;;17.60;99.90;;;;;;5127256;27;20492;-38
2021/05/06 08:45:52;;;;;;;8.30;6.10;;;17.50;99.90;;;;;;5146227;27;20478;-36
2021/05/06 08:48:22;;;;;;;7.13;6.53;;;17.30;99.90;;;;;;5146227;27;20424;-39
2021/05/06 08:50:55;;;;;;;7.50;6.13;;;17.30;99.90;;;;;;5129974;27;20476;-39
2021/05/06 08:53:26;;;;;;;7.63;6.80;;;17.30;99.90;;;;;;5146145;27;20452;-37
2021/05/06 08:55:56;;;;;;;7.70;6.87;;;17.20;99.90;;;;;;5146587;27;20475;-35
2021/05/06 08:58:27;;;;;;;8.00;6.50;;;17.20;99.90;;;;;;5143849;27;20479;-39
2021/05/06 09:00:57;;;;;;;6.60;6.00;;;17.10;99.90;;;;;;5129778;27;20542;-38
2021/05/06 09:03:27;;;;;;;8.00;6.57;;;17.00;99.90;;;;;;5144969;27;20444;-37
2021/05/06 09:06:12;;;;;;;6.37;5.87;;;17.00;99.90;;;;;;5146013;27;20857;-37
2021/05/06 09:08:42;;;;;;;7.47;6.70;;;16.90;99.90;;;;;;5144519;27;20522;-39
2021/05/06 09:11:13;;;;;;;8.57;6.87;;;16.80;99.90;;;;;;5145936;27;20549;-38
2021/05/06 09:13:44;;;;;;;7.23;5.80;;;16.80;99.90;;;;;;5144559;27;20449;-39
2021/05/06 09:16:14;;;;;;;6.20;5.60;;;16.80;99.90;;;;;;5145308;27;20430;-33
2021/05/06 09:18:48;;;;;;;6.77;5.80;;;16.80;99.90;;;;;;5144993;27;20452;-38
2021/05/06 09:21:32;;;;;;;8.60;6.03;;;16.80;99.90;;;;;;5145521;27;20497;-39
2021/05/06 09:24:19;;;;;;;6.17;5.63;;;16.90;99.90;;;;;;5145907;27;20950;-36
2021/05/06 09:26:49;;;;;;;7.00;5.73;;;16.90;99.90;;;;;;5143875;27;20444;-38
2021/05/06 09:29:33;;;;;;;6.70;5.80;;;16.90;99.90;;;;;;5145434;27;20925;-38
2021/05/06 09:32:15;;;;;;;6.07;5.23;;;16.90;99.90;;;;;;5145451;27;20476;-38
2021/05/06 09:34:52;;;;;;;5.57;5.00;;;16.90;99.90;;;;;;5145187;27;20473;-38
2021/05/06 09:37:23;;;;;;;6.30;5.03;;;16.90;99.90;;;;;;5145043;27;20456;-39
2021/05/06 09:39:58;;;;;;;4.97;4.50;;;16.90;99.90;;;;;;5145344;27;20479;-37
2021/05/06 09:42:41;;;;;;;6.17;5.10;;;16.80;99.90;;;;;;5144251;27;20452;-33
2021/05/06 09:45:22;;;;;;;7.10;5.53;;;16.70;99.90;;;;;;5144480;27;20457;-38
2021/05/06 09:48:10;;;;;;;6.07;5.10;;;16.80;99.90;;;;;;5144455;27;20452;-36
2021/05/06 09:50:41;;;;;;;6.67;4.60;;;16.80;99.90;;;;;;5145678;27;20476;-37
2021/05/06 09:53:14;;;;;;;5.73;5.00;;;16.80;99.90;;;;;;5128461;27;20507;-39
2021/05/06 09:55:46;;;;;;;4.67;4.27;;;16.70;99.90;;;;;;5144921;27;20482;-38
2021/05/06 09:58:18;;;;;;;5.80;4.53;;;16.60;99.90;;;;;;5143423;27;20457;-39
2021/05/06 10:00:51;;;;;;;5.47;4.97;;;16.60;99.90;;;;;;5143416;27;20593;-37
2021/05/06 10:03:22;;;;;;;4.87;4.47;;;16.60;99.90;;;;;;5130261;27;20429;-39
2021/05/06 10:05:53;;;;;;;5.40;4.90;;;16.50;99.90;;;;;;5145465;27;20447;-39
2021/05/06 10:08:34;;;;;;;5.30;4.80;;;16.50;99.90;;;;;;5144131;27;20452;-39
2021/05/06 10:11:13;;;;;;;6.07;4.60;;;16.50;99.90;;;;;;5143536;27;20615;-39
2021/05/06 10:13:44;;;;;;;4.40;4.10;;;16.50;99.90;;;;;;5143617;27;20494;-39
2021/05/06 10:16:17;;;;;;;5.70;4.77;;;16.40;99.90;;;;;;5141044;27;20478;-39
2021/05/06 10:18:46;;;;;;;4.13;3.80;;;16.40;99.90;;;;;;5143695;27;20498;-39
2021/05/06 10:21:18;;;;;;;4.67;4.13;;;16.30;99.90;;;;;;5144138;27;20437;-37
2021/05/06 10:23:49;;;;;;;4.57;4.17;;;16.30;99.90;;;;;;5143681;27;20441;-38
2021/05/06 10:26:21;;;;;;;5.60;4.80;;;16.30;99.90;;;;;;5144099;27;20925;-39
2021/05/06 10:28:53;;;;;;;4.70;4.20;;;16.30;99.90;;;;;;5142542;27;20444;-36
2021/05/06 10:31:24;;;;;;;4.43;4.03;;;16.30;99.90;;;;;;5143959;27;20541;-38
2021/05/06 10:33:54;;;;;;;5.23;3.60;;;16.30;99.90;;;;;;5144146;27;20429;-38
2021/05/06 10:36:25;;;;;;;4.17;3.77;;;16.30;99.90;;;;;;5143808;27;20445;-39
2021/05/06 10:38:55;;;;;;;3.70;3.40;;;16.20;99.90;;;;;;5143471;27;20509;-37
2021/05/06 10:41:31;;;;;;;3.97;3.57;;;16.20;99.90;;;;;;5143994;27;20453;-36
2021/05/06 10:44:03;;;;;;;3.73;2.80;;;16.20;99.90;;;;;;5143325;27;20442;-38
2021/05/06 10:46:58;;;;;;;3.57;3.13;;;16.20;99.90;;;;;;5143655;27;20474;-39
2021/05/06 10:49:29;;;;;;;2.60;2.40;;;16.20;99.90;;;;;;5133454;27;20457;-38
2021/05/06 10:52:05;;;;;;;3.67;2.90;;;16.10;99.90;;;;;;5144101;27;20540;-39
2021/05/06 10:54:40;;;;;;;3.33;2.83;;;16.10;99.90;;;;;;5143885;27;20823;-37
2021/05/06 10:57:31;;;;;;;3.60;2.90;;;16.10;99.90;;;;;;5127379;28;20445;-39
2021/05/06 11:00:01;;;;;;;3.53;3.00;;;16.00;99.90;;;;;;5140961;27;20488;-37
2021/05/06 11:02:51;;;;;;;3.60;3.30;;;15.90;99.90;;;;;;5144005;28;20521;-38
2021/05/06 11:05:23;;;;;;;4.30;3.27;;;15.90;99.90;;;;;;5142325;28;20456;-36
2021/05/06 11:08:25;;;;;;;3.00;2.70;;;15.80;99.90;;;;;;5143509;28;20449;-39
2021/05/06 11:11:13;;;;;;;3.60;2.40;;;15.80;99.90;;;;;;5141035;28;20472;-38
2021/05/06 11:14:09;;;;;;;4.57;2.93;;;15.70;99.90;;;;;;5142627;28;20440;-39
2021/05/06 11:16:42;;;;;;;3.03;2.60;;;15.60;99.90;;;;;;5143395;28;20448;-39
2021/05/06 11:19:14;;;;;;;4.13;2.73;;;15.60;99.90;;;;;;5143759;28;20504;-39
2021/05/06 11:21:45;;;;;;;2.27;2.13;;;15.40;99.90;;;;;;5143732;28;20448;-38
2021/05/06 11:24:19;;;;;;;2.37;2.17;;;15.40;99.90;;;;;;5143799;28;20483;-39
2021/05/06 11:27:12;;;;;;;3.87;2.37;;;15.40;99.90;;;;;;5141830;28;20448;-39
2021/05/06 11:29:43;;;;;;;2.97;2.00;;;15.30;99.90;;;;;;5132279;28;20441;-40
2021/05/06 11:32:35;;;;;;;2.50;2.30;;;15.30;99.90;;;;;;5143626;27;20536;-37
2021/05/06 11:35:07;;;;;;;3.83;2.63;;;15.20;99.90;;;;;;5139820;27;20517;-39
2021/05/06 11:37:37;;;;;;;3.30;2.40;;;15.20;99.90;;;;;;5147975;27;20443;-37
2021/05/06 11:40:16;;;;;;;3.77;2.07;;;15.20;99.90;;;;;;5147424;27;20474;-38
2021/05/06 11:42:46;;;;;;;3.17;2.30;;;15.10;99.90;;;;;;5146734;27;20479;-39
2021/05/06 11:45:21;;;;;;;2.77;2.40;;;15.10;99.90;;;;;;5146137;27;20456;-39
2021/05/06 11:47:51;;;;;;;4.57;2.77;;;15.10;99.90;;;;;;5147611;27;20449;-39
2021/05/06 11:50:26;;;;;;;3.00;2.70;;;15.00;99.90;;;;;;5147038;27;20951;-39
2021/05/06 11:52:58;;;;;;;2.90;2.67;;;15.00;99.90;;;;;;5146151;27;20448;-38
2021/05/06 11:55:32;;;;;;;2.97;2.20;;;14.90;99.90;;;;;;5147380;27;20510;-39
2021/05/06 11:58:03;;;;;;;4.17;2.60;;;14.80;99.90;;;;;;5146026;27;20928;-39
2021/05/06 12:00:34;;;;;;;3.07;2.50;;;14.70;99.90;;;;;;5144970;27;20970;-37
2021/05/06 12:03:06;;;;;;;2.47;2.27;;;14.70;99.90;;;;;;5146694;27;20961;-38
2021/05/06 12:05:59;;;;;;;3.30;2.50;;;14.70;99.90;;;;;;5146379;27;20619;-38
2021/05/06 12:08:32;;;;;;;3.53;2.63;;;14.60;99.90;;;;;;5146806;27;20437;-35
2021/05/06 12:11:05;;;;;;;2.43;2.23;;;14.50;99.90;;;;;;5131211;27;20501;-40
2021/05/06 12:13:36;;;;;;;2.70;2.27;;;14.50;99.90;;;;;;5146019;27;20452;-40
2021/05/06 12:16:27;;;;;;;2.93;2.63;;;14.50;99.90;;;;;;5146567;27;20602;-40
2021/05/06 12:19:08;;;;;;;2.53;2.37;;;14.50;99.90;;;;;;5141247;27;20462;-39
2021/05/06 12:21:41;;;;;;;2.73;2.53;;;14.40;99.90;;;;;;5146710;27;20448;-40
2021/05/06 12:24:13;;;;;;;3.33;2.47;;;14.40;99.90;;;;;;5146564;27;20540;-39
2021/05/06 12:26:43;;;;;;;3.10;2.60;;;14.40;99.90;;;;;;5145047;27;20518;-38
2021/05/06 12:29:29;;;;;;;3.83;2.67;;;14.30;99.90;;;;;;5146346;27;20462;-38
2021/05/06 12:31:59;;;;;;;3.03;2.70;;;14.30;99.90;;;;;;5138401;27;20864;-37
2021/05/06 12:34:34;;;;;;;4.00;2.93;;;14.20;99.90;;;;;;5146265;27;20493;-36
2021/05/06 12:37:08;;;;;;;2.80;2.50;;;14.20;99.90;;;;;;5146289;27;20444;-39
2021/05/06 12:39:46;;;;;;;4.80;3.00;;;14.20;99.90;;;;;;5145544;27;20448;-39
2021/05/06 12:42:27;;;;;;;4.77;2.90;;;14.20;99.90;;;;;;5132993;27;20452;-38
2021/05/06 12:44:58;;;;;;;3.47;2.43;;;14.10;99.90;;;;;;5144343;27;21057;-37
2021/05/06 12:47:29;;;;;;;2.60;2.40;;;14.20;99.90;;;;;;5146721;27;20814;-36
2021/05/06 12:50:11;;;;;;;2.63;2.43;;;14.10;99.90;;;;;;5145674;27;20535;-38
2021/05/06 12:52:45;;;;;;;4.20;2.63;;;14.10;99.90;;;;;;5145368;27;20494;-37
2021/05/06 12:55:23;;;;;;;2.97;2.77;;;14.10;99.90;;;;;;5145615;27;20452;-38
2021/05/06 12:58:12;;;;;;;3.53;2.83;;;14.10;99.90;;;;;;5144749;27;20449;-39
2021/05/06 13:00:46;;;;;;;3.00;2.43;;;14.10;99.90;;;;;;5142357;27;20459;-39
2021/05/06 13:03:17;;;;;;;2.80;2.60;;;14.10;99.90;;;;;;5145228;27;20503;-38
2021/05/06 13:05:48;;;;;;;3.07;2.60;;;14.10;99.90;;;;;;5146310;27;20441;-36
2021/05/06 13:08:20;;;;;;;2.87;2.63;;;14.10;99.90;;;;;;5133190;27;20525;-40
2021/05/06 13:10:50;;;;;;;3.90;2.70;;;14.10;99.90;;;;;;5145273;27;20477;-38
2021/05/06 13:13:38;;;;;;;2.77;2.57;;;14.10;99.90;;;;;;5143914;27;20449;-39
2021/05/06 13:16:09;;;;;;;2.43;2.13;;;14.10;99.90;;;;;;5145838;27;20445;-39
2021/05/06 13:18:39;;;;;;;3.20;2.93;;;14.10;99.90;;;;;;5144543;27;20452;-39
2021/05/06 13:21:24;;;;;;;2.70;2.30;;;14.00;99.90;;;;;;5145750;27;20584;-37
2021/05/06 13:23:58;;;;;;;2.37;2.20;;;14.00;99.90;;;;;;5145766;27;20901;-37
2021/05/06 13:26:36;;;;;;;3.90;2.30;;;14.00;99.90;;;;;;5144353;27;20928;-40
2021/05/06 13:29:12;;;;;;;3.00;2.57;;;14.00;99.90;;;;;;5145423;27;20441;-39
2021/05/06 13:31:45;;;;;;;5.73;2.73;;;14.10;99.90;;;;;;5144387;27;21009;-38
2021/05/06 13:34:17;;;;;;;2.80;2.43;;;14.10;99.90;;;;;;5144985;27;20463;-39
2021/05/06 13:37:01;;;;;;;2.40;2.20;;;14.20;99.90;;;;;;5144614;27;20449;-39
2021/05/06 13:39:33;;;;;;;2.50;2.30;;;14.30;99.90;;;;;;5145592;27;20437;-36
2021/05/06 13:42:04;;;;;;;2.60;2.40;;;14.30;99.90;;;;;;5145158;27;20461;-39
2021/05/06 13:44:35;;;;;;;4.23;2.33;;;14.40;99.90;;;;;;5144216;27;20616;-38
2021/05/06 13:47:08;;;;;;;3.40;2.60;;;14.50;99.90;;;;;;5144596;27;20448;-38
2021/05/06 13:49:38;;;;;;;3.23;2.90;;;14.60;99.90;;;;;;5145161;27;20891;-38
2021/05/06 13:52:08;;;;;;;2.60;2.40;;;14.70;99.90;;;;;;5144405;27;20552;-36
2021/05/06 13:54:39;;;;;;;3.20;2.40;;;14.80;99.90;;;;;;5145491;27;20436;-37
2021/05/06 13:57:09;;;;;;;4.70;2.90;;;15.10;99.90;;;;;;5144278;27;20433;-38
2021/05/06 13:59:39;;;;;;;5.00;2.47;;;15.20;99.90;;;;;;5143009;27;20470;-36
2021/05/06 14:02:09;;;;;;;3.43;2.70;;;15.40;99.90;;;;;;5143534;27;20448;-37
2021/05/06 14:04:43;;;;;;;2.40;1.80;;;15.60;99.90;;;;;;5144997;27;20449;-35
2021/05/06 14:07:12;;;;;;;2.77;2.20;;;15.90;99.90;;;;;;5144709;27;20433;-38
2021/05/06 14:09:44;;;;;;;4.43;2.57;;;16.10;99.60;;;;;;5144725;27;20436;-39
2021/05/06 14:12:14;;;;;;;3.10;2.63;;;16.30;99.50;;;;;;5143262;27;20477;-39
2021/05/06 14:14:45;;;;;;;2.10;1.97;;;16.50;98.80;;;;;;5144935;27;20959;-39
2021/05/06 14:17:14;;;;;;;2.60;2.37;;;16.60;98.50;;;;;;5145261;27;20493;-39
2021/05/06 14:19:45;;;;;;;5.57;2.40;;;16.60;98.10;;;;;;5144158;27;20850;-38
2021/05/06 14:22:15;;;;;;;2.77;2.33;;;16.70;98.50;;;;;;5144029;27;20841;-37
2021/05/06 14:24:47;;;;;;;3.50;2.57;;;16.80;98.30;;;;;;5144407;27;20452;-35
2021/05/06 14:27:17;;;;;;;2.87;2.67;;;16.70;98.20;;;;;;5143585;27;20506;-37
2021/05/06 14:29:47;;;;;;;2.27;2.00;;;16.70;98.40;;;;;;5144631;27;20514;-38
2021/05/06 14:32:17;;;;;;;2.50;2.10;;;16.80;98.10;;;;;;5143941;27;20537;-37
2021/05/06 14:34:47;;;;;;;2.53;2.13;;;16.80;97.60;;;;;;5143642;27;20452;-37
2021/05/06 14:37:18;;;;;;;2.50;2.30;;;16.80;97.70;;;;;;5144336;27;20437;-37
2021/05/06 14:39:49;;;;;;;4.20;2.50;;;16.90;97.20;;;;;;5144897;27;20493;-37
2021/05/06 14:42:20;;;;;;;3.40;2.20;;;16.90;97.10;;;;;;5144187;27;20455;-37
2021/05/06 14:44:52;;;;;;;4.20;2.30;;;17.20;97.10;;;;;;5102924;28;20450;-39
2021/05/06 14:47:22;;;;;;;2.20;1.70;;;17.40;96.70;;;;;;5102463;28;20466;-37
2021/05/06 14:49:53;;;;;;;2.90;2.13;;;17.60;95.40;;;;;;5102851;28;21004;-37
2021/05/06 14:52:23;;;;;;;4.53;2.00;;;17.50;95.00;;;;;;5102603;28;20483;-38
2021/05/06 14:54:54;;;;;;;3.30;2.00;;;17.70;95.00;;;;;;5102772;28;20504;-36
2021/05/06 14:57:24;;;;;;;4.70;2.00;;;18.00;94.40;;;;;;5102354;28;20455;-39
2021/05/06 14:59:54;;;;;;;2.20;1.80;;;18.20;93.80;;;;;;5090075;28;20471;-38
2021/05/06 15:02:24;;;;;;;2.93;2.10;;;18.40;93.20;;;;;;5100938;28;20457;-37
2021/05/06 15:04:54;;;;;;;2.73;2.10;;;18.40;92.10;;;;;;5102962;28;20448;-35
2021/05/06 15:07:24;;;;;;;2.20;2.00;;;18.10;92.70;;;;;;5102168;28;20514;-38
2021/05/06 15:09:56;;;;;;;2.43;2.23;;;17.90;93.90;;;;;;5102412;28;20511;-39
2021/05/06 15:12:26;;;;;;;2.33;2.20;;;18.10;93.40;;;;;;5100511;28;20474;-41
2021/05/06 15:14:56;;;;;;;3.30;2.00;;;18.20;93.00;;;;;;5102612;28;20425;-39
2021/05/06 15:17:26;;;;;;;4.00;1.87;;;18.30;91.60;;;;;;5099516;28;20466;-39
2021/05/06 15:19:56;;;;;;;2.90;2.27;;;18.10;92.10;;;;;;5101362;28;20456;-39
2021/05/06 15:22:27;;;;;;;2.17;1.80;;;17.80;93.00;;;;;;5096504;28;20426;-39
2021/05/06 15:25:00;;;;;;;2.47;2.27;;;17.80;92.50;;;;;;5102378;28;20972;-39
2021/05/06 15:27:30;;;;;;;2.67;1.80;;;17.80;92.80;;;;;;5101123;28;20425;-40
2021/05/06 15:30:06;;;;;;;2.73;2.47;;;18.00;92.40;;;;;;5088455;28;20749;-40
2021/05/06 15:32:36;;;;;;;2.50;2.30;;;18.40;91.60;;;;;;5100023;28;20486;-40
2021/05/06 15:35:08;;;;;;;1.90;1.60;;;18.30;92.40;;;;;;5087508;28;20428;-39
2021/05/06 15:37:38;;;;;;;1.87;1.70;;;18.50;90.50;;;;;;5096090;28;20472;-40
2021/05/06 15:40:12;;;;;;;5.10;2.20;;;18.10;90.70;;;;;;5085711;28;20490;-42
2021/05/06 15:45:49;;;;;;;2.77;1.80;;;18.70;89.70;;;;;;5129035;28;20509;-38
2021/05/06 15:48:19;;;;;;;1.70;1.60;;;19.90;85.20;;;;;;5142633;28;20771;-41
2021/05/06 15:50:49;;;;;;;4.40;2.03;;;20.50;81.30;;;;;;5143315;27;20803;-40
2021/05/06 15:53:21;;;;;;;2.83;1.80;;;21.10;78.20;;;;;;5127254;28;20443;-40
2021/05/06 15:55:52;;;;;;;1.80;1.70;;;21.70;76.50;;;;;;5143002;28;21043;-41